Time;durP1;ratioP1;P1;durP2;ratioP2;P2;SDS_P1;SDS_P2;PMS_P1;PMS_P2;Temp;Humidity;BMP_temperature;BMP_pressure;BME280_temperature;BME280_humidity;BME280_pressure;Samples;Min_cycle;Max_cycle;Signal;HPM_P1;HPM_P2
2021/09/19 00:00:00;;;;;;;9.80;4.30;;;;;;;9.38;89.38;99727.43;1727604;80;22073;-59
2021/09/19 00:02:27;;;;;;;5.85;4.15;;;;;;;9.39;89.38;99736.97;1726024;81;21505;-59
2021/09/19 00:04:53;;;;;;;6.90;3.87;;;;;;;9.40;89.50;99743.86;1726726;81;21026;-59
2021/09/19 00:07:20;;;;;;;6.55;4.62;;;;;;;9.42;89.47;99739.44;1731560;79;21036;-59
2021/09/19 00:09:47;;;;;;;6.67;4.17;;;;;;;9.41;89.38;99737.75;1730561;80;21492;-59
2021/09/19 00:12:13;;;;;;;10.70;4.00;;;;;;;9.40;89.44;99736.88;1727346;80;21040;-59
2021/09/19 00:14:40;;;;;;;6.62;3.70;;;;;;;9.41;89.44;99742.97;1727596;79;21491;-59
2021/09/19 00:17:07;;;;;;;9.77;4.93;;;;;;;9.38;89.45;99743.06;1727049;80;20839;-59
2021/09/19 00:19:33;;;;;;;10.23;3.52;;;;;;;9.39;89.42;99742.17;1729534;80;20891;-59
2021/09/19 00:22:00;;;;;;;5.97;4.57;;;;;;;9.39;89.42;99740.88;1721846;81;20917;-59
2021/09/19 00:24:27;;;;;;;6.50;4.65;;;;;;;9.39;89.41;99738.27;1724127;81;21039;-59
2021/09/19 00:26:53;;;;;;;7.00;4.45;;;;;;;9.37;89.42;99741.38;1726453;80;21672;-59
2021/09/19 00:29:21;;;;;;;7.95;3.83;;;;;;;9.37;89.40;99733.56;1731216;80;20922;-59
2021/09/19 00:31:48;;;;;;;4.75;3.80;;;;;;;9.37;89.35;99738.78;1726303;80;20925;-59
2021/09/19 00:34:14;;;;;;;5.40;3.60;;;;;;;9.36;89.43;99741.00;1731117;80;21495;-59
2021/09/19 00:36:41;;;;;;;6.60;4.10;;;;;;;9.34;89.47;99738.91;1726015;80;21473;-59
2021/09/19 00:39:08;;;;;;;8.98;4.05;;;;;;;9.34;89.52;99737.61;1734069;80;20903;-59
2021/09/19 00:41:35;;;;;;;7.90;4.45;;;;;;;9.33;89.52;99726.80;1729887;80;20897;-59
2021/09/19 00:44:07;;;;;;;5.67;4.28;;;;;;;9.35;89.64;99727.56;1730338;80;21197;-59
2021/09/19 00:46:33;;;;;;;7.00;4.60;;;;;;;9.35;89.62;99726.27;1725098;81;20931;-59
2021/09/19 00:49:00;;;;;;;6.77;4.80;;;;;;;9.30;89.54;99733.42;1691456;82;21060;-59
2021/09/19 00:51:28;;;;;;;6.80;3.80;;;;;;;9.26;89.61;99725.35;1705791;82;21047;-60
2021/09/19 00:53:57;;;;;;;7.25;4.55;;;;;;;9.27;89.71;99725.73;1732649;80;21459;-60
2021/09/19 00:56:27;;;;;;;10.88;4.00;;;;;;;9.27;89.64;99721.83;1718611;80;21358;-59
2021/09/19 00:58:56;;;;;;;8.60;5.62;;;;;;;9.22;89.61;99726.41;1743288;80;20929;-59
2021/09/19 01:01:23;;;;;;;6.53;4.05;;;;;;;9.21;89.75;99727.30;1743552;80;21199;-59
2021/09/19 01:03:51;;;;;;;6.05;4.33;;;;;;;9.18;89.78;99723.90;1746702;80;20922;-59
2021/09/19 01:06:18;;;;;;;10.25;4.85;;;;;;;9.17;89.82;99733.94;1742662;80;20965;-59
2021/09/19 01:08:45;;;;;;;6.85;4.95;;;;;;;9.15;89.79;99729.23;1743861;80;20867;-59
2021/09/19 01:11:15;;;;;;;8.38;5.03;;;;;;;9.14;89.82;99736.67;1740389;80;21493;-59
2021/09/19 01:13:44;;;;;;;6.08;4.42;;;;;;;9.12;89.83;99731.12;1742747;80;21108;-59
2021/09/19 01:16:13;;;;;;;6.15;3.90;;;;;;;9.12;89.86;99724.16;1731337;81;21452;-59
2021/09/19 01:18:42;;;;;;;5.90;4.65;;;;;;;9.11;89.82;99731.59;1741224;80;20925;-59
2021/09/19 01:21:11;;;;;;;9.45;5.47;;;;;;;9.09;89.82;99721.69;1743293;80;20930;-59
2021/09/19 01:23:39;;;;;;;7.75;4.72;;;;;;;9.08;89.84;99722.61;1745765;80;20981;-59
2021/09/19 01:26:06;;;;;;;8.33;4.83;;;;;;;9.08;89.85;99725.20;1743715;80;21998;-59
2021/09/19 01:28:33;;;;;;;9.40;4.47;;;;;;;9.05;89.83;99727.94;1739748;80;20994;-59
2021/09/19 01:31:00;;;;;;;11.53;5.50;;;;;;;9.03;89.87;99724.55;1742848;80;20877;-59
2021/09/19 01:33:27;;;;;;;5.75;4.22;;;;;;;9.01;89.86;99724.21;1740638;80;20882;-59
2021/09/19 01:35:58;;;;;;;6.25;4.42;;;;;;;8.96;89.87;99723.09;1738432;81;20861;-59
2021/09/19 01:38:24;;;;;;;9.70;5.00;;;;;;;8.95;89.93;99724.01;1740614;80;21043;-59
2021/09/19 01:40:51;;;;;;;10.60;5.20;;;;;;;8.92;89.96;99718.92;1750663;80;20846;-59
2021/09/19 01:43:17;;;;;;;13.65;5.15;;;;;;;8.91;89.97;99725.90;1744788;80;20929;-59
2021/09/19 01:45:44;;;;;;;6.10;3.92;;;;;;;8.91;89.96;99719.84;1744540;80;21433;-59
2021/09/19 01:48:11;;;;;;;6.67;4.80;;;;;;;8.91;89.99;99712.03;1742717;80;20961;-59
2021/09/19 01:50:37;;;;;;;9.20;4.42;;;;;;;8.92;90.08;99713.72;1741410;80;21028;-59
2021/09/19 01:53:05;;;;;;;6.50;4.50;;;;;;;8.95;90.04;99707.08;1720133;81;20910;-59
2021/09/19 01:55:32;;;;;;;7.22;5.10;;;;;;;8.98;90.09;99716.06;1711513;80;21442;-59
2021/09/19 01:57:59;;;;;;;8.23;4.58;;;;;;;9.00;90.08;99711.65;1721518;80;20922;-59
2021/09/19 02:00:26;;;;;;;9.53;4.87;;;;;;;9.02;89.98;99715.05;1742523;80;20937;-59
2021/09/19 02:02:53;;;;;;;9.53;5.25;;;;;;;8.99;89.91;99712.58;1741167;80;21141;-59
2021/09/19 02:05:20;;;;;;;14.90;5.07;;;;;;;8.96;89.89;99713.55;1743797;80;21431;-59
2021/09/19 02:07:47;;;;;;;6.78;3.83;;;;;;;8.93;89.87;99712.37;1739241;80;20942;-59
2021/09/19 02:10:18;;;;;;;20.32;5.20;;;;;;;8.90;89.88;99710.32;1743994;80;20854;-59
2021/09/19 02:12:45;;;;;;;9.00;3.95;;;;;;;8.88;89.94;99705.19;1745740;80;20914;-59
2021/09/19 02:15:14;;;;;;;5.90;3.67;;;;;;;8.89;89.97;99707.34;1738184;81;21061;-59
2021/09/19 02:17:41;;;;;;;6.42;3.42;;;;;;;8.89;89.98;99708.64;1746958;80;21438;-59
2021/09/19 02:20:12;;;;;;;7.95;3.90;;;;;;;8.88;89.94;99711.70;1715891;80;20925;-59
2021/09/19 02:22:39;;;;;;;7.97;4.08;;;;;;;8.89;89.95;99703.43;1743534;80;20965;-59
2021/09/19 02:25:08;;;;;;;10.28;3.75;;;;;;;8.89;89.95;99704.73;1740586;80;21548;-59
2021/09/19 02:27:35;;;;;;;4.08;2.80;;;;;;;8.89;89.98;99703.43;1735307;81;22462;-59
2021/09/19 02:30:09;;;;;;;9.13;3.67;;;;;;;8.88;89.99;99703.05;1743468;80;20913;-59
2021/09/19 02:32:36;;;;;;;4.85;2.85;;;;;;;8.86;89.96;99703.56;1734972;80;21225;-59
2021/09/19 02:35:04;;;;;;;6.67;3.20;;;;;;;8.84;89.88;99702.77;1743242;80;20914;-59
2021/09/19 02:37:31;;;;;;;6.25;3.87;;;;;;;8.82;89.97;99709.78;1743022;80;21476;-59
2021/09/19 02:39:57;;;;;;;5.67;2.98;;;;;;;8.80;89.97;99706.41;1741305;80;21511;-59
2021/09/19 02:42:24;;;;;;;5.78;3.22;;;;;;;8.78;89.91;99709.52;1741719;80;20871;-59
2021/09/19 02:44:53;;;;;;;4.35;2.83;;;;;;;8.76;89.86;99708.73;1743639;80;21474;-59
2021/09/19 02:47:19;;;;;;;5.90;3.42;;;;;;;8.72;89.93;99706.25;1743062;80;21429;-59
2021/09/19 02:49:46;;;;;;;4.05;3.00;;;;;;;8.73;89.99;99702.73;1742734;80;20951;-59
2021/09/19 02:52:12;;;;;;;5.72;3.62;;;;;;;8.73;89.99;99705.33;1742331;80;21056;-59
2021/09/19 02:54:41;;;;;;;5.10;2.80;;;;;;;8.76;90.09;99704.83;1739575;80;20930;-59
2021/09/19 02:57:08;;;;;;;6.55;3.27;;;;;;;8.80;90.04;99714.23;1714341;81;20931;-59
2021/09/19 02:59:35;;;;;;;4.33;2.30;;;;;;;8.79;90.01;99713.81;1715035;81;20962;-59
2021/09/19 03:02:02;;;;;;;5.57;2.53;;;;;;;8.80;89.92;99711.63;1719104;81;20895;-59
2021/09/19 03:04:28;;;;;;;6.60;3.22;;;;;;;8.78;89.92;99713.43;1710521;81;20974;-59
2021/09/19 03:06:55;;;;;;;6.58;2.55;;;;;;;8.78;89.85;99714.73;1711861;81;20965;-59
2021/09/19 03:09:22;;;;;;;4.58;2.60;;;;;;;8.77;89.86;99709.14;1718867;81;20925;-59
2021/09/19 03:11:49;;;;;;;5.43;2.40;;;;;;;8.67;89.88;99696.47;1710146;81;21580;-59
2021/09/19 03:14:15;;;;;;;4.03;2.50;;;;;;;8.79;89.80;99711.20;1717900;81;20884;-59
2021/09/19 03:16:42;;;;;;;4.62;3.30;;;;;;;8.80;89.94;99707.72;1715210;81;20998;-59
2021/09/19 03:19:09;;;;;;;5.17;2.12;;;;;;;8.82;89.78;99708.48;1719576;81;20971;-59
2021/09/19 03:21:35;;;;;;;3.90;2.62;;;;;;;8.81;89.70;99708.94;1715650;81;20906;-59
2021/09/19 03:24:02;;;;;;;6.10;3.08;;;;;;;8.79;89.57;99707.30;1698377;82;20898;-59
2021/09/19 03:26:29;;;;;;;6.40;2.30;;;;;;;8.76;89.60;99707.43;1698972;83;20943;-59
2021/09/19 03:28:55;;;;;;;7.57;2.77;;;;;;;8.72;89.61;99704.95;1698768;82;22048;-59
2021/09/19 03:31:22;;;;;;;4.50;2.47;;;;;;;8.69;89.56;99705.53;1716712;81;20950;-59
2021/09/19 03:33:49;;;;;;;8.83;3.35;;;;;;;8.64;89.53;99707.01;1714609;81;20950;-59
2021/09/19 03:36:16;;;;;;;7.90;2.55;;;;;;;8.58;89.54;99702.05;1721153;81;20951;-59
2021/09/19 03:38:42;;;;;;;11.78;3.58;;;;;;;8.54;89.55;99703.06;1715288;81;21008;-59
2021/09/19 03:41:09;;;;;;;3.40;2.50;;;;;;;8.54;89.64;99702.22;1713900;80;21224;-59
2021/09/19 03:43:36;;;;;;;5.73;1.87;;;;;;;8.55;89.32;99708.68;1717788;80;21417;-59
2021/09/19 03:46:02;;;;;;;3.75;2.35;;;;;;;8.56;89.37;99688.24;1720298;81;21210;-59
2021/09/19 03:48:29;;;;;;;2.85;2.10;;;;;;;8.56;89.37;99688.24;1720719;81;20877;-59
2021/09/19 03:50:56;;;;;;;3.23;2.00;;;;;;;8.69;88.72;99706.38;1703186;82;21020;-59
2021/09/19 03:53:22;;;;;;;3.67;2.10;;;;;;;8.72;88.71;99707.55;1697290;82;22369;-59
2021/09/19 03:55:49;;;;;;;4.33;2.12;;;;;;;8.77;88.88;99706.54;1701100;83;21070;-59
2021/09/19 03:58:15;;;;;;;4.83;1.70;;;;;;;8.79;88.57;99709.91;1698449;83;20916;-59
2021/09/19 04:00:42;;;;;;;3.35;1.35;;;;;;;8.84;88.24;99702.77;1697689;82;21961;-59
2021/09/19 04:03:09;;;;;;;2.80;2.13;;;;;;;8.84;88.24;99702.77;1696182;82;20939;-59
2021/09/19 04:05:36;;;;;;;5.37;2.23;;;;;;;8.87;87.81;99710.45;1717771;81;21051;-59
2021/09/19 04:08:05;;;;;;;4.85;2.12;;;;;;;8.86;87.82;99704.40;1681004;83;20960;-59
2021/09/19 04:10:33;;;;;;;3.12;1.70;;;;;;;8.87;87.65;99707.84;1675516;84;20999;-59
2021/09/19 04:12:59;;;;;;;3.87;1.85;;;;;;;8.89;87.91;99711.24;1680895;84;20936;-59
2021/09/19 04:15:26;;;;;;;11.22;1.92;;;;;;;8.90;87.81;99711.16;1681965;84;20896;-59
2021/09/19 04:17:52;;;;;;;4.92;1.80;;;;;;;8.91;87.45;99708.12;1681083;83;22118;-59
2021/09/19 04:20:19;;;;;;;6.65;1.72;;;;;;;8.91;87.21;99712.88;1713176;81;21434;-59
2021/09/19 04:22:45;;;;;;;6.10;1.83;;;;;;;8.91;87.18;99712.88;1713463;80;20915;-59
2021/09/19 04:25:12;;;;;;;2.98;1.40;;;;;;;8.93;86.88;99713.67;1715283;81;20947;-59
2021/09/19 04:27:39;;;;;;;3.30;1.45;;;;;;;8.94;86.93;99712.75;1716617;81;20887;-59
2021/09/19 04:30:07;;;;;;;10.83;2.20;;;;;;;8.95;87.22;99708.38;1700422;82;21089;-59
2021/09/19 04:32:36;;;;;;;11.30;3.70;;;;;;;8.96;87.04;99711.37;1700215;82;20986;-59
2021/09/19 04:35:04;;;;;;;2.90;1.70;;;;;;;8.97;86.85;99711.78;1701418;82;20920;-59
2021/09/19 04:37:31;;;;;;;3.33;2.40;;;;;;;8.97;86.96;99716.98;1715882;81;20917;-59
2021/09/19 04:39:57;;;;;;;12.63;2.30;;;;;;;8.97;86.60;99719.59;1717003;80;20925;-59
2021/09/19 04:42:24;;;;;;;4.72;2.17;;;;;;;8.98;87.10;99713.46;1718429;81;22166;-59
2021/09/19 04:44:51;;;;;;;3.50;1.87;;;;;;;9.01;86.46;99717.70;1713106;81;20920;-59
2021/09/19 04:47:18;;;;;;;4.73;3.07;;;;;;;8.99;85.98;99719.52;1715930;81;20942;-59
2021/09/19 04:49:44;;;;;;;4.78;2.12;;;;;;;8.98;85.63;99721.27;1715611;81;20965;-59
2021/09/19 04:52:11;;;;;;;3.02;2.00;;;;;;;8.98;85.42;99729.09;1666509;82;20965;-59
2021/09/19 04:54:38;;;;;;;3.12;2.08;;;;;;;8.98;84.20;99727.78;1714103;81;21086;-59
2021/09/19 04:57:05;;;;;;;2.05;1.70;;;;;;;9.01;84.97;99728.96;1710651;81;21027;-59
2021/09/19 04:59:31;;;;;;;5.10;2.40;;;;;;;9.03;84.81;99731.05;1721253;81;20991;-59
2021/09/19 05:01:58;;;;;;;1.93;1.30;;;;;;;9.05;84.73;99740.97;1714009;81;21461;-59
2021/09/19 05:04:27;;;;;;;4.00;1.75;;;;;;;9.08;84.96;99732.19;1721151;81;20962;-59
2021/09/19 05:06:53;;;;;;;4.05;2.25;;;;;;;9.07;83.22;99736.52;1719230;81;21820;-59
2021/09/19 05:09:20;;;;;;;3.67;2.12;;;;;;;9.06;82.45;99739.20;1717307;81;21756;-59
2021/09/19 05:11:46;;;;;;;2.15;1.70;;;;;;;9.10;83.87;99741.63;1719752;81;20978;-59
2021/09/19 05:14:13;;;;;;;2.47;1.60;;;;;;;9.10;82.61;99736.42;1722293;81;21537;-59
2021/09/19 05:16:51;;;;;;;1.73;1.47;;;;;;;9.12;82.36;99742.39;1682784;83;20979;-59
2021/09/19 05:19:18;;;;;;;3.83;2.12;;;;;;;9.12;82.01;99742.39;1678721;83;21044;-59
2021/09/19 05:21:44;;;;;;;3.47;2.00;;;;;;;9.11;81.93;99743.77;1719800;81;20978;-59
2021/09/19 05:24:11;;;;;;;2.25;1.42;;;;;;;9.12;82.91;99743.69;1725414;81;20883;-59
2021/09/19 05:26:38;;;;;;;2.40;1.70;;;;;;;9.14;82.76;99740.58;1718222;81;21584;-59
2021/09/19 05:29:04;;;;;;;3.00;1.98;;;;;;;9.16;82.38;99730.95;1726317;81;20963;-59
2021/09/19 05:31:31;;;;;;;6.17;2.52;;;;;;;9.16;82.28;99736.16;1719084;81;21117;-59
2021/09/19 05:33:58;;;;;;;4.10;1.83;;;;;;;9.15;82.42;99738.36;1719287;81;20926;-59
2021/09/19 05:36:25;;;;;;;4.55;2.22;;;;;;;9.13;81.91;99749.31;1712429;81;26466;-58
2021/09/19 05:38:52;;;;;;;2.17;1.73;;;;;;;9.13;82.58;99743.23;1721827;81;21008;-58
2021/09/19 05:41:19;;;;;;;2.55;1.70;;;;;;;9.17;82.71;99750.88;1723002;81;20996;-58
2021/09/19 05:43:45;;;;;;;4.35;1.70;;;;;;;9.19;82.75;99754.27;1715218;81;21685;-58
2021/09/19 05:46:12;;;;;;;3.70;1.60;;;;;;;9.21;82.82;99750.74;1717971;81;20914;-58
2021/09/19 05:48:39;;;;;;;2.87;1.93;;;;;;;9.26;82.62;99761.83;1715090;81;20972;-58
2021/09/19 05:51:06;;;;;;;8.38;1.72;;;;;;;9.28;82.19;99755.64;1716801;81;20914;-58
2021/09/19 05:53:32;;;;;;;2.10;1.47;;;;;;;9.28;80.87;99745.23;1719259;81;20922;-58
2021/09/19 05:55:59;;;;;;;4.12;1.47;;;;;;;9.33;81.99;99750.26;1716959;80;21467;-58
2021/09/19 05:58:25;;;;;;;2.07;1.50;;;;;;;9.34;81.26;99751.94;1732268;80;20879;-58
2021/09/19 06:00:52;;;;;;;2.08;1.45;;;;;;;9.38;82.20;99741.77;1727498;81;21073;-58
2021/09/19 06:03:19;;;;;;;6.55;1.60;;;;;;;9.39;81.04;99745.62;1736146;80;20987;-59
2021/09/19 06:05:45;;;;;;;3.15;1.80;;;;;;;9.41;81.01;99745.57;1728546;81;20946;-59
2021/09/19 06:08:12;;;;;;;2.83;1.37;;;;;;;9.38;80.58;99753.48;1699172;83;21940;-59
2021/09/19 06:10:39;;;;;;;2.98;1.40;;;;;;;9.34;79.95;99752.78;1694617;82;21502;-59
2021/09/19 06:13:05;;;;;;;2.15;1.70;;;;;;;9.35;80.80;99751.02;1731095;80;20896;-59
2021/09/19 06:15:32;;;;;;;4.20;1.40;;;;;;;9.38;80.97;99750.89;1731501;80;20918;-59
2021/09/19 06:17:59;;;;;;;2.12;1.30;;;;;;;9.44;80.57;99755.86;1734985;80;21677;-59
2021/09/19 06:20:26;;;;;;;2.15;1.27;;;;;;;9.47;80.47;99758.34;1696984;82;21158;-59
2021/09/19 06:22:52;;;;;;;2.40;1.63;;;;;;;9.54;80.72;99757.15;1732785;80;20934;-59
2021/09/19 06:25:19;;;;;;;2.57;1.50;;;;;;;9.58;81.08;99752.22;1725444;80;21531;-59
2021/09/19 06:27:46;;;;;;;3.15;1.80;;;;;;;9.63;81.04;99754.17;1729918;80;21011;-59
2021/09/19 06:30:14;;;;;;;4.47;1.30;;;;;;;9.62;80.30;99760.74;1732846;81;20930;-58
2021/09/19 06:32:41;;;;;;;3.20;1.75;;;;;;;9.62;80.31;99757.67;1733710;80;21059;-59
2021/09/19 06:35:09;;;;;;;1.80;1.60;;;;;;;9.61;79.73;99761.20;1726782;80;20950;-59
2021/09/19 06:37:36;;;;;;;1.95;1.47;;;;;;;9.61;79.72;99762.51;1731870;80;20913;-60
2021/09/19 06:40:04;;;;;;;2.40;1.30;;;;;;;9.56;79.03;99760.55;1727978;80;20902;-60
2021/09/19 06:42:31;;;;;;;2.77;1.40;;;;;;;9.56;78.51;99755.80;1729546;80;21017;-59
2021/09/19 06:44:58;;;;;;;3.08;1.90;;;;;;;9.60;79.50;99758.65;1735216;80;21073;-59
2021/09/19 06:47:25;;;;;;;2.00;1.30;;;;;;;9.62;79.11;99762.05;1735028;81;20905;-61
2021/09/19 06:49:52;;;;;;;3.27;1.42;;;;;;;9.63;78.70;99772.42;1698596;82;21475;-60
2021/09/19 06:52:20;;;;;;;;;;;;;;;9.60;77.85;99763.40;1703322;82;20986;-58
2021/09/19 06:54:46;;;;;;;;;;;;;;;9.61;78.61;99765.12;1736305;80;20155;-59
2021/09/19 06:57:21;;;;;;;2.15;1.20;;;;;;;9.65;79.16;99764.52;1720207;80;20992;-59
2021/09/19 06:59:48;;;;;;;3.17;1.45;;;;;;;9.68;78.94;99766.16;1733892;80;20916;-59
2021/09/19 07:02:15;;;;;;;1.85;1.20;;;;;;;9.69;78.73;99773.92;1735965;82;21451;-59
2021/09/19 07:04:42;;;;;;;1.95;1.32;;;;;;;9.59;75.76;99783.88;1736424;80;20950;-59
2021/09/19 07:07:08;;;;;;;2.53;1.40;;;;;;;9.59;77.17;99774.75;1736229;81;20876;-60
2021/09/19 07:09:37;;;;;;;2.33;1.50;;;;;;;9.49;75.96;99774.73;1729845;80;21906;-59
2021/09/19 07:12:05;;;;;;;2.62;1.32;;;;;;;9.51;77.41;99770.31;1737246;80;21467;-59
2021/09/19 07:14:31;;;;;;;;;;;;;;;9.53;78.02;99773.71;1741040;80;20906;-59
2021/09/19 07:16:58;;;;;;;2.10;1.55;;;;;;;9.55;77.90;99775.81;1740080;80;20128;-59
2021/09/19 07:19:24;;;;;;;2.57;1.60;;;;;;;9.64;78.02;99774.11;1737723;80;20903;-59
2021/09/19 07:21:51;;;;;;;3.30;1.98;;;;;;;9.70;77.32;99769.55;1738419;80;22181;-59
2021/09/19 07:24:18;;;;;;;3.60;3.17;;;;;;;9.73;76.31;99770.72;1736690;80;20974;-59
2021/09/19 07:26:46;;;;;;;6.12;4.55;;;;;;;9.79;77.72;99769.14;1738343;80;20913;-59
2021/09/19 07:29:13;;;;;;;11.55;8.80;;;;;;;9.82;76.29;99774.22;1744802;80;20930;-58
2021/09/19 07:31:40;;;;;;;18.75;15.83;;;;;;;9.90;77.52;99769.52;1739996;80;20934;-58
2021/09/19 07:34:07;;;;;;;8.03;3.95;;;;;;;9.96;76.78;99766.64;1724993;80;21039;-59
2021/09/19 07:36:36;;;;;;;8.40;3.87;;;;;;;9.97;77.05;99768.78;1736855;80;20967;-59
2021/09/19 07:39:06;;;;;;;4.03;3.50;;;;;;;10.05;77.29;99770.17;1739839;80;21429;-59
2021/09/19 07:41:34;;;;;;;3.65;2.62;;;;;;;10.15;77.23;99776.28;1687659;82;38372;-59
2021/09/19 07:44:02;;;;;;;1.95;1.70;;;;;;;10.13;76.84;99776.80;1737520;80;21610;-59
2021/09/19 07:46:29;;;;;;;2.58;2.22;;;;;;;10.13;75.92;99783.31;1736977;80;21275;-59
2021/09/19 07:48:57;;;;;;;2.12;1.80;;;;;;;10.12;75.34;99774.65;1730501;80;20914;-60
2021/09/19 07:51:24;;;;;;;6.50;3.20;;;;;;;10.15;76.83;99777.58;1734222;80;20924;-59
2021/09/19 07:53:52;;;;;;;4.72;3.52;;;;;;;10.24;77.27;99771.94;1735276;80;20982;-60
2021/09/19 07:56:21;;;;;;;5.22;3.42;;;;;;;10.30;76.58;99774.30;1732641;80;21434;-59
2021/09/19 07:58:49;;;;;;;8.00;4.92;;;;;;;10.33;76.49;99776.77;1738824;80;21158;-59
2021/09/19 08:01:18;;;;;;;6.85;3.60;;;;;;;10.36;76.99;99780.54;1738494;80;20964;-59
2021/09/19 08:03:47;;;;;;;6.08;3.17;;;;;;;10.39;75.19;99779.55;1738162;80;21510;-59
2021/09/19 08:06:15;;;;;;;5.62;2.58;;;;;;;10.39;76.33;99776.52;1718765;80;21499;-59
2021/09/19 08:08:42;;;;;;;2.75;2.15;;;;;;;10.46;75.99;99768.77;1736523;81;21017;-59
2021/09/19 08:11:11;;;;;;;5.33;2.30;;;;;;;10.57;76.21;99767.44;1736934;80;21029;-60
2021/09/19 08:13:38;;;;;;;4.65;2.00;;;;;;;10.77;77.14;99775.18;1733555;80;21513;-58
2021/09/19 08:16:05;;;;;;;3.87;2.37;;;;;;;10.88;75.81;99763.77;1735327;79;21488;-60
2021/09/19 08:18:34;;;;;;;3.75;1.90;;;;;;;11.00;75.93;99775.84;1737139;80;21631;-59
2021/09/19 08:21:01;;;;;;;2.77;1.77;;;;;;;10.95;74.93;99779.55;1739737;80;20920;-60
2021/09/19 08:23:28;;;;;;;3.02;2.22;;;;;;;10.84;74.32;99780.52;1738617;80;21101;-60
2021/09/19 08:25:56;;;;;;;3.33;2.05;;;;;;;10.87;75.49;99780.36;1739351;80;20965;-60
2021/09/19 08:28:25;;;;;;;3.00;1.70;;;;;;;11.00;75.54;99775.84;1739696;81;20972;-60
2021/09/19 08:30:54;;;;;;;3.77;2.02;;;;;;;11.07;76.14;99777.26;1734714;81;21458;-60
2021/09/19 08:33:26;;;;;;;6.55;2.40;;;;;;;11.07;74.31;99792.94;1740722;80;20932;-58
2021/09/19 08:35:50;;;;;;;3.87;1.72;;;;;;;11.07;74.39;99780.71;1734989;80;21136;-59
2021/09/19 08:38:16;;;;;;;4.33;1.77;;;;;;;10.95;72.84;99784.77;1735224;80;20939;-59
2021/09/19 08:40:43;;;;;;;5.75;2.40;;;;;;;10.84;73.82;99783.12;1739518;80;21027;-59
2021/09/19 08:43:10;;;;;;;1.90;1.33;;;;;;;10.83;73.05;99790.55;1738661;80;20927;-59
2021/09/19 08:45:57;;;;;;;2.02;1.45;;;;;;;10.84;73.79;99800.10;1734732;80;21263;-59
2021/09/19 08:48:22;;;;;;;2.27;1.50;;;;;;;10.83;74.90;99795.78;1727649;80;20892;-59
2021/09/19 08:50:51;;;;;;;;;;;;;;;10.81;74.12;99800.25;1738411;80;20916;-60
2021/09/19 08:53:24;;;;;;;3.15;1.65;;;;;;;10.66;73.87;99786.13;1741899;80;20458;-59
2021/09/19 08:55:50;;;;;;;2.92;1.40;;;;;;;10.61;74.09;99791.17;1738143;80;20998;-59
2021/09/19 08:58:21;;;;;;;4.10;1.60;;;;;;;10.56;74.65;99791.83;1721342;81;20894;-59
2021/09/19 09:00:50;;;;;;;4.60;1.40;;;;;;;10.41;73.37;99796.84;1733533;81;21438;-59
2021/09/19 09:03:22;;;;;;;2.60;1.52;;;;;;;10.38;73.27;99791.77;1733425;81;21527;-60
2021/09/19 09:06:05;;;;;;;2.92;1.50;;;;;;;10.37;74.00;99801.83;1721544;81;20961;-60
2021/09/19 09:08:33;;;;;;;2.22;1.70;;;;;;;10.41;73.54;99799.45;1736431;81;20894;-59
2021/09/19 09:11:07;;;;;;;2.42;1.40;;;;;;;10.40;74.21;99801.69;1732019;81;20898;-59
2021/09/19 09:13:36;;;;;;;3.25;1.62;;;;;;;10.39;73.75;99800.00;1717839;81;21279;-59
2021/09/19 09:16:15;;;;;;;3.05;1.70;;;;;;;10.40;74.42;99794.32;1729869;80;20882;-59
2021/09/19 09:18:52;;;;;;;2.87;1.47;;;;;;;10.44;74.73;99802.38;1732523;80;20959;-59
2021/09/19 09:21:32;;;;;;;1.98;1.65;;;;;;;10.43;73.98;99792.41;1726496;81;20931;-59
2021/09/19 09:24:03;;;;;;;3.30;2.10;;;;;;;10.39;73.99;99800.44;1734253;80;21032;-60
2021/09/19 09:26:33;;;;;;;2.85;1.60;;;;;;;10.38;73.86;99793.07;1712232;81;21060;-59
2021/09/19 09:29:16;;;;;;;4.00;1.65;;;;;;;10.44;74.10;99804.53;1731481;81;21488;-59
2021/09/19 09:31:50;;;;;;;2.12;1.77;;;;;;;10.44;73.37;99796.70;1738421;80;20913;-58
2021/09/19 09:34:23;;;;;;;2.62;2.35;;;;;;;10.56;73.52;99792.70;1734491;81;21408;-60
2021/09/19 09:37:03;;;;;;;4.75;2.27;;;;;;;10.64;73.79;99792.33;1733044;81;20986;-59
2021/09/19 09:39:40;;;;;;;4.90;1.65;;;;;;;10.57;71.44;99798.77;1738953;81;21032;-59
2021/09/19 09:42:18;;;;;;;2.10;1.67;;;;;;;10.58;72.39;99789.55;1724192;81;21488;-59
2021/09/19 09:44:52;;;;;;;3.72;1.90;;;;;;;10.64;73.23;99794.94;1735113;80;21508;-59
2021/09/19 09:47:31;;;;;;;2.90;1.62;;;;;;;10.69;73.09;99788.59;1727792;81;20963;-59
2021/09/19 09:50:06;;;;;;;4.00;1.57;;;;;;;10.79;72.61;99799.47;1732289;80;20946;-58
2021/09/19 09:52:39;;;;;;;3.20;1.67;;;;;;;10.87;73.65;99801.27;1738954;81;21053;-58
2021/09/19 09:55:10;;;;;;;3.98;1.98;;;;;;;10.94;72.86;99796.12;1728432;81;20919;-58
2021/09/19 09:57:47;;;;;;;4.87;1.42;;;;;;;11.08;72.24;99792.00;1732304;80;20855;-58
2021/09/19 10:00:27;;;;;;;3.12;2.05;;;;;;;11.04;71.84;99787.86;1725330;81;21437;-59
2021/09/19 10:02:54;;;;;;;2.87;1.70;;;;;;;11.09;72.43;99791.07;1722994;80;20922;-58
2021/09/19 10:05:25;;;;;;;2.65;1.75;;;;;;;11.10;71.37;99791.48;1714881;81;21202;-58
2021/09/19 10:07:53;;;;;;;2.30;1.62;;;;;;;11.21;72.79;99790.50;1727277;80;21018;-58
2021/09/19 10:10:24;;;;;;;4.00;1.80;;;;;;;11.29;71.78;99801.43;1728761;80;20949;-59
2021/09/19 10:12:58;;;;;;;2.58;1.52;;;;;;;11.37;71.72;99782.73;1726688;80;21363;-59
2021/09/19 10:15:26;;;;;;;1.92;1.72;;;;;;;11.43;72.19;99795.05;1728808;80;20953;-59
2021/09/19 10:18:00;;;;;;;2.72;1.98;;;;;;;11.38;70.93;99790.52;1729316;80;20990;-59
2021/09/19 10:20:46;;;;;;;4.50;1.72;;;;;;;11.26;70.90;99798.97;1710871;81;20919;-59
2021/09/19 10:23:21;;;;;;;3.10;1.95;;;;;;;11.17;70.13;99790.25;1720166;81;20886;-59
2021/09/19 10:25:53;;;;;;;5.53;1.80;;;;;;;11.21;71.97;99794.42;1723663;81;21445;-59
2021/09/19 10:28:45;;;;;;;3.30;1.60;;;;;;;11.30;71.97;99797.88;1728969;80;20942;-59
2021/09/19 10:31:20;;;;;;;3.25;1.40;;;;;;;11.26;70.18;99792.87;1730688;80;21148;-59
2021/09/19 10:34:07;;;;;;;3.55;1.60;;;;;;;11.22;71.83;99802.63;1698846;80;20898;-59
2021/09/19 10:36:55;;;;;;;1.72;1.20;;;;;;;11.15;70.53;99805.17;1729287;80;20979;-59
2021/09/19 10:39:32;;;;;;;2.40;1.57;;;;;;;11.25;71.86;99810.33;1729067;80;20962;-59
2021/09/19 10:42:30;;;;;;;1.85;1.40;;;;;;;11.27;71.80;99805.88;1730618;80;21000;-59
2021/09/19 10:45:07;;;;;;;2.20;1.52;;;;;;;11.18;68.44;99827.23;1734519;80;20970;-59
2021/09/19 10:47:50;;;;;;;3.35;1.75;;;;;;;11.11;71.03;99819.30;1726353;80;21054;-59
2021/09/19 10:50:40;;;;;;;2.05;1.60;;;;;;;11.13;71.41;99807.01;1728492;80;20943;-59
2021/09/19 10:53:22;;;;;;;9.90;2.17;;;;;;;11.13;70.60;99816.16;1727853;80;20878;-59
2021/09/19 10:56:01;;;;;;;2.27;1.42;;;;;;;11.09;70.11;99817.20;1735803;80;20977;-59
2021/09/19 10:58:49;;;;;;;2.67;1.60;;;;;;;11.02;69.98;99818.44;1687107;82;21064;-59
2021/09/19 11:01:28;;;;;;;2.77;1.82;;;;;;;11.09;71.16;99817.20;1697097;83;20932;-59
2021/09/19 11:04:15;;;;;;;3.65;1.40;;;;;;;11.22;71.02;99815.70;1699066;83;20880;-59
2021/09/19 11:06:45;;;;;;;2.12;1.50;;;;;;;11.31;70.96;99817.86;1695725;83;20887;-59
2021/09/19 11:09:28;;;;;;;2.72;1.30;;;;;;;11.43;69.27;99808.13;1662802;84;20929;-59
2021/09/19 11:12:19;;;;;;;2.30;1.43;;;;;;;11.41;70.09;99813.89;1698659;82;21306;-59
2021/09/19 11:15:05;;;;;;;4.30;1.45;;;;;;;11.48;70.04;99808.34;1701648;83;21181;-59
2021/09/19 11:17:34;;;;;;;3.47;1.50;;;;;;;11.50;68.29;99811.74;1701243;82;20914;-60
2021/09/19 11:20:20;;;;;;;2.22;1.22;;;;;;;11.28;69.68;99804.94;1671066;83;20974;-59
2021/09/19 11:23:01;;;;;;;4.90;1.42;;;;;;;11.22;69.38;99800.02;1663854;84;20957;-59
2021/09/19 11:25:25;;;;;;;2.05;1.80;;;;;;;11.02;69.44;99808.83;1693917;83;22234;-59
2021/09/19 11:27:53;;;;;;;2.42;1.50;;;;;;;10.96;70.07;99809.96;1699650;83;20952;-59
2021/09/19 11:30:24;;;;;;;5.58;1.80;;;;;;;10.98;70.12;99808.13;1699067;83;20955;-59
2021/09/19 11:32:49;;;;;;;1.72;1.35;;;;;;;11.09;70.06;99810.67;1698372;83;20961;-59
2021/09/19 11:35:16;;;;;;;5.27;1.40;;;;;;;11.16;70.74;99808.16;1697143;83;20923;-59
2021/09/19 11:37:45;;;;;;;1.80;1.27;;;;;;;11.21;69.92;99811.41;1699172;82;21031;-59
2021/09/19 11:40:17;;;;;;;2.42;1.47;;;;;;;11.25;69.88;99818.16;1701690;82;20966;-60
2021/09/19 11:42:45;;;;;;;1.52;1.20;;;;;;;11.32;70.27;99811.73;1696648;82;21488;-59
2021/09/19 11:45:12;;;;;;;4.95;1.67;;;;;;;11.33;68.84;99821.25;1699634;83;21002;-59
2021/09/19 11:47:40;;;;;;;1.92;1.32;;;;;;;11.36;69.40;99812.42;1703074;83;21002;-58